Weather History for Shawnee, OK

Change the Weather History Date:

Tuesday, August 27, 2013

  Actual Average (KTIK) Record (KTIK)
Temperature  
Mean Temperature 81 °F -  
Max Temperature 91 °F 89 °F 105 °F (2011)
Min Temperature 71 °F 68 °F 64 °F (2010)
Cooling Degree Days 16    
Growing Degree Days 31 (Base 50)    
Moisture  
Dew Point 73 °F    
Average Humidity 74    
Maximum Humidity 94    
Minimum Humidity 55    
Precipitation  
Precipitation 0.00 in - - ()
Sea Level Pressure  
Sea Level Pressure 30.10 in    
Wind  
Wind Speed 5 mph (SSE)    
Max Wind Speed 10 mph    
Max Gust Speed -    
Visibility 10 miles    
Events      
Averages and records for this station are not official NWS values.
T = Trace of Precipitation, MM = Missing Value Source: NWS Daily Summary

Daily Weather History Graph

Daily Weather History Graph

Search for Another Location

Airport:

Trip Planner

Search our weather history database for the weather conditions in past years. The results will help you decide how hot, cold, wet, or windy it might be!

Date:

Astronomy

Aug. 27, 2013 Rise Set
Actual Time 6:56 AM CDT 8:01 PM CDT
Civil Twilight 6:30 AM CDT 8:27 PM CDT
Nautical Twilight 5:59 AM CDT 8:58 PM CDT
Astronomical Twilight 5:26 AM CDT 9:30 PM CDT
Moon No Moon Rise 1:39 PM CDT (8/27)
Length of Visible Light 13h 56m
Length of Day
13h 04m
Waning Gibbous, 57% of the Moon is Illuminated
Aug 27
Waning Gibbous
Aug 28
Last Quarter
Sep 5
New
Sep 12
First Quarter
Sep 19
Full

Hourly Weather History & Observations

Time (CDT) Temp. Heat Index Dew Point Humidity Pressure Visibility Wind Dir Wind Speed Gust Speed Precip Events Conditions
12:15 AM 78.8 °F - 73.4 °F 83% 30.12 in 10.0 mi SE 4.6 mph - N/A   Clear
12:35 AM 78.8 °F - 73.4 °F 83% 30.12 in 10.0 mi SE 5.8 mph - N/A   Clear
12:55 AM 78.8 °F - 73.4 °F 83% 30.11 in 10.0 mi SE 5.8 mph - N/A   Clear
1:15 AM 78.8 °F - 73.4 °F 83% 30.11 in 10.0 mi SE 4.6 mph - N/A   Clear
1:35 AM 77.0 °F - 71.6 °F 83% 30.11 in 10.0 mi SSE 5.8 mph - N/A   Clear
1:55 AM 78.8 °F - 71.6 °F 78% 30.11 in 10.0 mi SE 4.6 mph - N/A   Clear
2:15 AM 77.0 °F - 69.8 °F 78% 30.10 in 10.0 mi SSE 4.6 mph - N/A   Clear
2:35 AM 77.0 °F - 69.8 °F 78% 30.10 in 10.0 mi SE 3.5 mph - N/A   Clear
2:55 AM 77.0 °F - 69.8 °F 78% 30.10 in 10.0 mi SSE 4.6 mph - N/A   Clear
3:15 AM 77.0 °F - 69.8 °F 78% 30.10 in 10.0 mi SSE 5.8 mph - N/A   Clear
3:35 AM 77.0 °F - 68.0 °F 74% 30.10 in 10.0 mi SSE 6.9 mph - N/A   Clear
3:55 AM 77.0 °F - 68.0 °F 74% 30.10 in 10.0 mi SSE 6.9 mph - N/A   Clear
4:15 AM 77.0 °F - 68.0 °F 74% 30.11 in 10.0 mi SSE 8.1 mph - N/A   Clear
4:35 AM 77.0 °F - 68.0 °F 74% 30.11 in 10.0 mi SSE 8.1 mph - N/A   Clear
4:55 AM 77.0 °F - 69.8 °F 78% 30.12 in 10.0 mi SSE 6.9 mph - N/A   Clear
5:15 AM 77.0 °F - 69.8 °F 78% 30.12 in 10.0 mi SSE 5.8 mph - N/A   Clear
5:35 AM 73.4 °F - 68.0 °F 83% 30.12 in 10.0 mi South 5.8 mph - N/A   Clear
5:55 AM 73.4 °F - 68.0 °F 83% 30.12 in 10.0 mi South 4.6 mph - N/A   Clear
6:15 AM 73.4 °F - 69.8 °F 88% 30.12 in 10.0 mi South 4.6 mph - N/A   Clear
6:35 AM 73.4 °F - 69.8 °F 88% 30.13 in 10.0 mi South 4.6 mph - N/A   Clear
6:55 AM 71.6 °F - 69.8 °F 94% 30.13 in 10.0 mi South 3.5 mph - N/A   Clear
7:15 AM 71.6 °F - 69.8 °F 94% 30.13 in 10.0 mi South 3.5 mph - N/A   Clear
7:35 AM 71.6 °F - 69.8 °F 94% 30.14 in 10.0 mi South 3.5 mph - N/A   Clear
7:55 AM 73.4 °F - 69.8 °F 88% 30.14 in 10.0 mi South 3.5 mph - N/A   Clear
8:15 AM 77.0 °F - 71.6 °F 83% 30.14 in 10.0 mi South 3.5 mph - N/A   Clear
8:35 AM 78.8 °F - 71.6 °F 78% 30.14 in 10.0 mi SSW 3.5 mph - N/A   Clear
8:55 AM 80.6 °F 85.4 °F 73.4 °F 79% 30.14 in 10.0 mi South 4.6 mph - N/A   Clear
9:15 AM 80.6 °F 84.6 °F 71.6 °F 74% 30.14 in 10.0 mi South 5.8 mph - N/A   Clear
9:35 AM 80.6 °F 85.4 °F 73.4 °F 79% 30.14 in 10.0 mi South 6.9 mph - N/A   Clear
9:55 AM 82.4 °F 88.2 °F 73.4 °F 74% 30.14 in 10.0 mi South 8.1 mph - N/A   Clear
10:15 AM 82.4 °F 88.2 °F 73.4 °F 74% 30.14 in 10.0 mi South 5.8 mph - N/A   Clear
10:35 AM 84.2 °F 90.9 °F 73.4 °F 70% 30.15 in 10.0 mi SSW 5.8 mph - N/A   Clear
10:55 AM 86.0 °F 93.4 °F 73.4 °F 66% 30.15 in 10.0 mi South 5.8 mph - N/A   Clear
11:15 AM 86.0 °F 93.4 °F 73.4 °F 66% 30.15 in 10.0 mi South 6.9 mph - N/A   Clear
11:35 AM 87.8 °F 95.6 °F 73.4 °F 62% 30.15 in 10.0 mi South 5.8 mph - N/A   Clear
11:55 AM 87.8 °F 95.6 °F 73.4 °F 62% 30.15 in 10.0 mi SSE 8.1 mph - N/A   Clear
12:15 PM 87.8 °F 97.6 °F 75.2 °F 66% 30.14 in 10.0 mi South 8.1 mph - N/A   Scattered Clouds
12:35 PM 91.4 °F 105.1 °F 77.0 °F 63% 30.14 in 10.0 mi South 4.6 mph - N/A   Scattered Clouds
1:15 PM 89.6 °F 99.8 °F 75.2 °F 62% 30.13 in 10.0 mi South 5.8 mph - N/A   Scattered Clouds
1:35 PM 91.4 °F 105.1 °F 77.0 °F 63% 30.12 in 10.0 mi South 8.1 mph - N/A   Scattered Clouds
2:15 PM 91.4 °F 105.1 °F 77.0 °F 63% 30.11 in 10.0 mi South 8.1 mph - N/A   Scattered Clouds
2:35 PM 91.4 °F 102.5 °F 75.2 °F 59% 30.11 in 10.0 mi SSW 6.9 mph - N/A   Scattered Clouds
2:55 PM 91.4 °F 102.5 °F 75.2 °F 59% 30.10 in 10.0 mi South 10.4 mph - N/A   Scattered Clouds
3:15 PM 91.4 °F 100.1 °F 73.4 °F 55% 30.09 in 10.0 mi SSW 10.4 mph - N/A   Mostly Cloudy
3:35 PM 91.4 °F 102.5 °F 75.2 °F 59% 30.09 in 10.0 mi SW 9.2 mph - N/A   Scattered Clouds
3:55 PM 91.4 °F 102.5 °F 75.2 °F 59% 30.09 in 10.0 mi SSW 8.1 mph - N/A   Scattered Clouds
4:15 PM 87.8 °F 97.6 °F 75.2 °F 66% 30.08 in 10.0 mi South 9.2 mph - N/A   Scattered Clouds
4:35 PM 87.8 °F 95.6 °F 73.4 °F 62% 30.08 in 10.0 mi SSW 8.1 mph - N/A   Scattered Clouds
4:55 PM 86.0 °F 93.4 °F 73.4 °F 66% 30.09 in 10.0 mi South 8.1 mph - N/A   Clear
5:15 PM 86.0 °F 93.4 °F 73.4 °F 66% 30.08 in 10.0 mi South 6.9 mph - N/A   Clear
5:35 PM 86.0 °F 93.4 °F 73.4 °F 66% 30.08 in 10.0 mi South 5.8 mph - N/A   Clear
5:55 PM 86.0 °F 93.4 °F 73.4 °F 66% 30.08 in 10.0 mi SSE 4.6 mph - N/A   Clear
6:15 PM 86.0 °F 93.4 °F 73.4 °F 66% 30.07 in 10.0 mi SSE 4.6 mph - N/A   Clear
6:35 PM 87.8 °F 97.6 °F 75.2 °F 66% 30.06 in 10.0 mi Calm Calm - N/A   Clear
6:55 PM 87.8 °F 95.6 °F 73.4 °F 62% 30.06 in 10.0 mi South 5.8 mph - N/A   Clear
7:15 PM 87.8 °F 95.6 °F 73.4 °F 62% 30.06 in 10.0 mi SE 4.6 mph - N/A   Clear
7:35 PM 87.8 °F 95.6 °F 73.4 °F 62% 30.06 in 10.0 mi SE 4.6 mph - N/A   Clear
7:55 PM 86.0 °F 93.4 °F 73.4 °F 66% 30.06 in 10.0 mi SE 3.5 mph - N/A   Clear
8:15 PM 82.4 °F 88.2 °F 73.4 °F 74% 30.06 in 10.0 mi SE 3.5 mph - N/A   Clear
8:35 PM 80.6 °F 85.4 °F 73.4 °F 79% 30.06 in 10.0 mi SE 4.6 mph - N/A   Clear
8:55 PM 80.6 °F 85.4 °F 73.4 °F 79% 30.06 in 10.0 mi SSE 3.5 mph - N/A   Clear
9:15 PM 80.6 °F 85.4 °F 73.4 °F 79% 30.06 in 10.0 mi Calm Calm - N/A   Clear
9:35 PM 80.6 °F 85.4 °F 73.4 °F 79% 30.07 in 10.0 mi Calm Calm - N/A   Clear
9:55 PM 80.6 °F 85.4 °F 73.4 °F 79% 30.07 in 10.0 mi Calm Calm - N/A   Clear
10:15 PM 80.6 °F 85.4 °F 73.4 °F 79% 30.07 in 10.0 mi Calm Calm - N/A   Clear
10:35 PM 78.8 °F - 73.4 °F 83% 30.07 in 10.0 mi SE 3.5 mph - N/A   Clear
10:55 PM 78.8 °F - 73.4 °F 83% 30.07 in 10.0 mi SE 3.5 mph - N/A   Clear
11:15 PM 78.8 °F - 73.4 °F 83% 30.07 in 10.0 mi SSE 3.5 mph - N/A   Clear
11:35 PM 78.8 °F - 75.2 °F 89% 30.07 in 10.0 mi Calm Calm - N/A   Clear
11:55 PM 78.8 °F - 75.2 °F 89% 30.07 in 10.0 mi SE 4.6 mph - N/A   Clear